createdAt,value
2023-04-23T00:01:02.011Z,23
2023-04-23T00:06:20.488Z,23
2023-04-23T00:11:38.591Z,23
2023-04-23T00:16:56.569Z,23.1
2023-04-23T00:22:15.104Z,23.1
2023-04-23T00:27:33.239Z,23.1
2023-04-23T00:32:51.556Z,23.1
2023-04-23T00:38:09.644Z,23.1
2023-04-23T00:43:28.003Z,23.1
2023-04-23T00:48:46.481Z,23.1
2023-04-23T00:54:04.830Z,23.1
2023-04-23T00:59:23.182Z,23.1
2023-04-23T01:04:42.162Z,23.1
2023-04-23T01:10:00.973Z,23.1
2023-04-23T01:15:19.185Z,23.1
2023-04-23T01:20:37.332Z,23.1
2023-04-23T01:25:55.722Z,23.1
2023-04-23T01:31:14.353Z,23.1
2023-04-23T01:36:33.120Z,23.1
2023-04-23T01:41:51.309Z,23.1
2023-04-23T01:47:09.840Z,23.2
2023-04-23T01:52:27.994Z,23.2
2023-04-23T01:57:46.335Z,23.2
2023-04-23T02:03:05.246Z,23.2
2023-04-23T02:08:23.584Z,23.2
2023-04-23T02:13:42.108Z,23.2
2023-04-23T02:19:00.717Z,23.2
2023-04-23T02:24:18.757Z,23.2
2023-04-23T02:29:37.067Z,23.2
2023-04-23T02:34:55.625Z,23.2
2023-04-23T02:40:13.622Z,23.2
2023-04-23T02:45:32.222Z,23.2
2023-04-23T02:50:50.572Z,23.2
2023-04-23T02:56:08.863Z,23.2
2023-04-23T03:01:27.056Z,23.2
2023-04-23T03:06:45.453Z,23.2
2023-04-23T03:12:03.690Z,23.2
2023-04-23T03:17:22.330Z,23.2
2023-04-23T03:22:40.546Z,23.2
2023-04-23T03:27:58.771Z,23.2
2023-04-23T03:33:17.139Z,23.2
2023-04-23T03:38:35.511Z,23.2
2023-04-23T03:43:53.883Z,23.2
2023-04-23T03:49:12.365Z,23.2
2023-04-23T03:54:30.940Z,23.2
2023-04-23T03:59:49.272Z,23.2
2023-04-23T04:05:08.361Z,23.2
2023-04-23T04:10:27.067Z,23.2
2023-04-23T04:15:45.111Z,23.2
2023-04-23T04:21:03.371Z,23.3
2023-04-23T04:26:21.535Z,23.2
2023-04-23T04:31:39.676Z,23.2
2023-04-23T04:36:58.062Z,23.2
2023-04-23T04:42:16.046Z,23.2
2023-04-23T04:47:34.121Z,23.2
2023-04-23T04:52:52.438Z,23.3
2023-04-23T04:58:10.812Z,23.2
2023-04-23T05:03:29.240Z,23.2
2023-04-23T05:08:47.773Z,23.3
2023-04-23T05:14:05.945Z,23.3
2023-04-23T05:19:24.097Z,23.3
2023-04-23T05:24:43.053Z,23.3
2023-04-23T05:30:01.989Z,23.3
2023-04-23T05:35:20.222Z,23.3
2023-04-23T05:40:38.575Z,23.3
2023-04-23T05:45:56.953Z,23.3
2023-04-23T05:51:15.249Z,23.3
2023-04-23T05:56:33.661Z,23.4
2023-04-23T06:01:52.009Z,23.4
2023-04-23T06:07:10.372Z,23.4
2023-04-23T06:12:29.741Z,23.4
2023-04-23T06:17:48.252Z,23.4
2023-04-23T06:23:06.676Z,23.5
2023-04-23T06:28:24.636Z,23.5
2023-04-23T06:33:43.017Z,23.5
2023-04-23T06:39:01.350Z,23.5
2023-04-23T06:44:20.118Z,23.5
2023-04-23T06:49:38.550Z,23.6
2023-04-23T06:54:56.714Z,23.6
2023-04-23T07:00:15.062Z,23.6
2023-04-23T07:05:33.742Z,23.7
2023-04-23T07:10:52.310Z,23.7
2023-04-23T07:16:10.803Z,23.7
2023-04-23T07:21:29.202Z,23.7
2023-04-23T07:26:47.818Z,23.7
2023-04-23T07:32:06.186Z,23.7
2023-04-23T07:37:24.482Z,23.7
2023-04-23T07:42:42.624Z,23.8
2023-04-23T07:48:00.689Z,23.8
2023-04-23T07:53:19.142Z,23.6
2023-04-23T07:58:37.512Z,23.6
2023-04-23T08:03:59.898Z,23.5
2023-04-23T08:09:24.340Z,23.5
2023-04-23T08:14:42.520Z,23.5
2023-04-23T08:19:50.646Z,23.5
2023-04-23T08:25:09.100Z,23.5
2023-04-23T08:30:27.428Z,23.5
2023-04-23T08:35:45.644Z,23.6
2023-04-23T08:41:04.182Z,23.6
2023-04-23T08:46:23.182Z,23.6
2023-04-23T08:51:41.505Z,23.6
2023-04-23T08:56:59.937Z,23.7
2023-04-23T09:02:18.573Z,23.7
2023-04-23T09:07:37.116Z,23.7
2023-04-23T09:12:55.459Z,23.7
2023-04-23T09:18:13.414Z,23.7
2023-04-23T09:23:31.790Z,23.7
2023-04-23T09:28:50.600Z,23.8
2023-04-23T09:34:09.215Z,23.8
2023-04-23T09:39:27.371Z,23.8
2023-04-23T09:44:45.948Z,23.9
2023-04-23T09:50:03.971Z,23.9
2023-04-23T09:55:22.079Z,23.9
2023-04-23T10:00:40.437Z,23.9
2023-04-23T10:06:02.837Z,23.9
2023-04-23T10:11:21.770Z,23.9
2023-04-23T10:16:49.542Z,23.9
2023-04-23T10:22:20.008Z,23.9
2023-04-23T10:27:54.139Z,23.9
2023-04-23T10:38:59.689Z,23.8
2023-04-23T10:50:03.810Z,23.9
2023-04-23T10:55:22.163Z,23.9
2023-04-23T11:00:40.292Z,23.8
2023-04-23T11:05:58.780Z,23.8
2023-04-23T11:11:17.228Z,23.8
2023-04-23T11:16:35.841Z,23.8
2023-04-23T11:21:54.188Z,23.8
2023-04-23T11:27:12.374Z,23.8
2023-04-23T11:32:30.595Z,23.8
2023-04-23T11:37:48.794Z,23.8
2023-04-23T11:43:07.217Z,23.8
2023-04-23T11:48:25.949Z,23.8
2023-04-23T11:53:44.583Z,23.8
2023-04-23T11:59:02.740Z,23.8
2023-04-23T12:04:21.408Z,23.8
2023-04-23T12:09:40.676Z,23.7
2023-04-23T12:14:59.396Z,23.7
2023-04-23T12:20:17.960Z,23.7
2023-04-23T12:25:36.097Z,23.7
2023-04-23T12:30:54.673Z,23.7
2023-04-23T12:36:13.582Z,23.7
2023-04-23T12:41:33.733Z,23.7
2023-04-23T12:46:52.026Z,23.7
2023-04-23T12:52:14.306Z,23.7
2023-04-23T12:57:33.073Z,23.7
2023-04-23T13:02:51.893Z,23.7
2023-04-23T13:08:10.452Z,23.7
2023-04-23T13:13:28.999Z,23.7
2023-04-23T13:18:47.316Z,23.7
2023-04-23T13:24:06.037Z,23.7
2023-04-23T13:29:24.278Z,23.7
2023-04-23T13:34:42.641Z,23.7
2023-04-23T13:40:00.842Z,23.7
2023-04-23T13:45:19.201Z,23.8
2023-04-23T13:50:37.586Z,23.8
2023-04-23T13:55:55.712Z,23.8
2023-04-23T14:01:13.933Z,23.8
2023-04-23T14:06:32.393Z,23.8
2023-04-23T14:11:50.560Z,23.9
2023-04-23T14:17:08.921Z,23.9
2023-04-23T14:22:27.302Z,23.9
2023-04-23T14:27:45.783Z,23.9
2023-04-23T14:33:04.337Z,23.9
2023-04-23T14:38:23.043Z,23.9
2023-04-23T14:43:41.560Z,23.9
2023-04-23T14:48:59.755Z,23.9
2023-04-23T14:54:18.144Z,23.9
2023-04-23T14:59:36.299Z,23.9
2023-04-23T15:04:54.378Z,23.9
2023-04-23T15:10:13.106Z,23.9
2023-04-23T15:15:43.537Z,24
2023-04-23T15:21:03.483Z,23.9
2023-04-23T15:26:21.705Z,23.7
2023-04-23T15:31:40.366Z,23.7
2023-04-23T15:36:58.883Z,23.8
2023-04-23T15:42:17.399Z,23.8
2023-04-23T15:47:35.537Z,23.8
2023-04-23T15:52:53.679Z,23.8
2023-04-23T15:58:12.276Z,23.7
2023-04-23T16:03:30.993Z,23.8
2023-04-23T16:08:50.099Z,23.8
2023-04-23T16:14:08.742Z,23.8
2023-04-23T16:19:27.446Z,23.8
2023-04-23T16:24:45.866Z,23.9
2023-04-23T16:30:03.799Z,23.9
2023-04-23T16:35:22.196Z,23.9
2023-04-23T16:40:40.540Z,23.8
2023-04-23T16:46:01.611Z,23.8
2023-04-23T16:51:20.431Z,23.6
2023-04-23T16:56:39.064Z,23.5
2023-04-23T17:01:57.481Z,23.5
2023-04-23T17:07:16.025Z,23.6
2023-04-23T17:12:34.362Z,23.5
2023-04-23T17:17:52.728Z,23.3
2023-04-23T17:23:11.077Z,23.3
2023-04-23T17:28:29.494Z,23.3
2023-04-23T17:33:48.965Z,23.3
2023-04-23T17:39:07.688Z,23.4
2023-04-23T17:44:26.053Z,23.4
2023-04-23T17:49:44.822Z,23.4
2023-04-23T17:54:47.304Z,23.4
2023-04-23T18:00:05.917Z,23.4
2023-04-23T18:05:08.463Z,23.4
2023-04-23T18:10:26.806Z,23.4
2023-04-23T18:15:45.030Z,23.4
2023-04-23T18:21:03.389Z,23.4
2023-04-23T18:26:22.079Z,23.4
2023-04-23T18:31:40.411Z,23.4
2023-04-23T18:36:58.924Z,23.4
2023-04-23T18:42:17.109Z,23.4
2023-04-23T18:47:35.687Z,23.4
2023-04-23T18:52:54.380Z,23.4
2023-04-23T18:58:13.370Z,23.4
2023-04-23T19:03:32.001Z,23.5
2023-04-23T19:08:50.513Z,23.5
2023-04-23T19:14:09.147Z,23.5
2023-04-23T19:19:27.671Z,23.5
2023-04-23T19:24:48.825Z,23.4
2023-04-23T19:30:06.979Z,23.5
2023-04-23T19:35:25.396Z,23.5
2023-04-23T19:40:44.263Z,23.5
2023-04-23T19:46:02.656Z,23.5
2023-04-23T19:51:21.360Z,23.4
2023-04-23T19:56:39.706Z,23.5
2023-04-23T20:01:58.256Z,23.5
2023-04-23T20:07:16.596Z,23.4
2023-04-23T20:12:35.248Z,23.4
2023-04-23T20:17:53.831Z,23.4
2023-04-23T20:23:11.845Z,23.5
2023-04-23T20:28:30.058Z,23.5
2023-04-23T20:33:48.404Z,23.5
2023-04-23T20:39:06.636Z,23.5
2023-04-23T20:44:24.932Z,23.5
2023-04-23T20:49:43.841Z,23.5
2023-04-23T20:55:02.825Z,23.5
2023-04-23T21:00:21.080Z,23.5
2023-04-23T21:05:39.584Z,23.5
2023-04-23T21:10:57.703Z,23.5
2023-04-23T21:16:16.028Z,23.5
2023-04-23T21:21:34.662Z,23.5
2023-04-23T21:26:52.653Z,23.5
2023-04-23T21:32:10.829Z,23.5
2023-04-23T21:37:29.208Z,23.5
2023-04-23T21:42:47.240Z,23.5
2023-04-23T21:48:05.732Z,23.5
2023-04-23T21:53:24.287Z,23.5
2023-04-23T21:58:42.683Z,23.5
2023-04-23T22:04:02.297Z,23.5
2023-04-23T22:09:20.500Z,23.5
2023-04-23T22:14:38.887Z,23.5
2023-04-23T22:19:57.037Z,23.5
2023-04-23T22:25:15.371Z,23.4
2023-04-23T22:30:33.755Z,23.4
2023-04-23T22:35:51.937Z,23.5
2023-04-23T22:41:10.121Z,23.4
2023-04-23T22:46:28.488Z,23.4
2023-04-23T22:51:46.779Z,23.4
2023-04-23T22:57:05.094Z,23.4
2023-04-23T23:02:23.534Z,23.4
2023-04-23T23:07:42.074Z,23.4
2023-04-23T23:13:00.635Z,23.4
2023-04-23T23:18:18.777Z,23.4
2023-04-23T23:23:37.124Z,23.4
2023-04-23T23:28:55.443Z,23.4
2023-04-23T23:34:13.788Z,23.4
2023-04-23T23:39:32.073Z,23.4
2023-04-23T23:44:50.436Z,23.4
2023-04-23T23:50:08.843Z,23.4
2023-04-23T23:55:27.000Z,23.4
